Time;durP1;ratioP1;P1;durP2;ratioP2;P2;SDS_P1;SDS_P2;PMS_P1;PMS_P2;Temp;Humidity;BMP_temperature;BMP_pressure;BME280_temperature;BME280_humidity;BME280_pressure;Samples;Min_cycle;Max_cycle;Signal;HPM_P1;HPM_P2
2021/04/05 00:00:20;;;;;;;5.10;3.53;;;0.30;99.90;;;;;;2091801;28;20197;-64
2021/04/05 00:01:21;;;;;;;6.78;3.58;;;0.30;99.90;;;;;;2091204;28;20194;-64
2021/04/05 00:02:22;;;;;;;8.13;3.97;;;0.40;99.90;;;;;;2091519;28;20181;-65
2021/04/05 00:03:23;;;;;;;7.13;3.47;;;0.30;99.90;;;;;;2091862;28;20194;-65
2021/04/05 00:04:26;;;;;;;7.13;3.47;;;0.30;99.90;;;;;;2091699;28;20180;-64
2021/04/05 00:05:35;;;;;;;8.30;4.25;;;0.30;99.90;;;;;;2091796;28;20447;-65
2021/04/05 00:06:35;;;;;;;8.60;4.15;;;0.30;99.90;;;;;;2082830;28;20708;-64
2021/04/05 00:07:36;;;;;;;12.27;4.10;;;0.30;99.90;;;;;;2082933;28;20174;-65
2021/04/05 00:08:37;;;;;;;9.33;3.87;;;0.30;99.90;;;;;;2091707;28;20209;-65
2021/04/05 00:09:39;;;;;;;6.60;4.03;;;0.30;99.90;;;;;;2091884;28;20676;-65
2021/04/05 00:10:55;;;;;;;7.30;3.70;;;0.30;99.90;;;;;;2091762;28;20264;-65
2021/04/05 00:11:56;;;;;;;8.05;4.60;;;0.40;99.90;;;;;;2091734;28;20889;-64
2021/04/05 00:13:02;;;;;;;7.10;4.18;;;0.40;99.90;;;;;;2091611;28;20220;-64
2021/04/05 00:14:03;;;;;;;7.28;3.83;;;0.40;99.90;;;;;;2091688;28;20173;-65
2021/04/05 00:15:08;;;;;;;8.23;4.13;;;0.40;99.90;;;;;;2091715;28;20930;-64
2021/04/05 00:16:21;;;;;;;9.70;4.00;;;0.40;99.90;;;;;;2091723;28;20807;-64
2021/04/05 00:17:21;;;;;;;7.93;3.72;;;0.30;99.90;;;;;;2091734;28;20194;-64
2021/04/05 00:18:23;;;;;;;6.37;3.90;;;0.40;99.90;;;;;;2091688;28;20171;-64
2021/04/05 00:19:24;;;;;;;11.13;3.88;;;0.30;99.90;;;;;;2082784;28;20176;-64
2021/04/05 00:20:39;;;;;;;6.83;3.47;;;0.30;99.90;;;;;;2082834;28;20175;-64
2021/04/05 00:21:39;;;;;;;7.05;3.67;;;0.30;99.90;;;;;;2091008;28;20166;-65
2021/04/05 00:22:44;;;;;;;6.97;3.20;;;0.30;99.90;;;;;;2091585;28;20171;-64
2021/04/05 00:23:45;;;;;;;8.68;3.80;;;0.30;99.90;;;;;;2082721;28;20171;-64
2021/04/05 00:24:45;;;;;;;6.10;3.30;;;0.30;99.90;;;;;;2082789;28;20263;-64
2021/04/05 00:25:46;;;;;;;7.03;3.60;;;0.20;99.90;;;;;;2091659;28;20229;-64
2021/04/05 00:26:47;;;;;;;9.43;3.50;;;0.20;99.90;;;;;;2091788;28;20758;-64
2021/04/05 00:27:48;;;;;;;9.07;3.57;;;0.20;99.90;;;;;;2091565;28;20463;-64
2021/04/05 00:28:49;;;;;;;7.10;3.75;;;0.20;99.90;;;;;;2091726;28;20260;-64
2021/04/05 00:29:50;;;;;;;6.38;3.20;;;0.20;99.90;;;;;;2091412;28;20679;-65
2021/04/05 00:30:53;;;;;;;5.53;3.50;;;0.20;99.90;;;;;;2091145;28;20213;-64
2021/04/05 00:31:53;;;;;;;7.80;4.13;;;0.10;99.90;;;;;;2091511;28;20229;-64
2021/04/05 00:32:54;;;;;;;7.10;3.43;;;0.10;99.90;;;;;;2091613;28;20279;-64
2021/04/05 00:33:55;;;;;;;5.30;3.50;;;0.10;99.90;;;;;;2091605;28;20167;-64
2021/04/05 00:34:55;;;;;;;8.63;3.30;;;0.10;99.90;;;;;;2091594;28;20183;-65
2021/04/05 00:35:56;;;;;;;6.10;3.83;;;0.10;99.90;;;;;;2091701;28;20185;-64
2021/04/05 00:36:57;;;;;;;8.83;3.67;;;0.00;99.90;;;;;;2091771;28;20185;-65
2021/04/05 00:37:59;;;;;;;8.27;3.63;;;0.00;99.90;;;;;;2082709;28;20183;-64
2021/04/05 00:39:00;;;;;;;7.40;3.70;;;0.00;99.90;;;;;;2083158;28;20175;-64
2021/04/05 00:40:09;;;;;;;6.18;3.80;;;0.00;99.90;;;;;;2091524;28;20578;-64
2021/04/05 00:41:15;;;;;;;9.27;3.53;;;0.00;99.90;;;;;;2091005;28;20236;-64
2021/04/05 00:42:18;;;;;;;7.13;3.70;;;0.00;99.90;;;;;;2082664;28;20175;-65
2021/04/05 00:43:19;;;;;;;7.20;3.53;;;0.00;99.90;;;;;;2074856;28;20275;-64
2021/04/05 00:44:20;;;;;;;6.10;3.58;;;0.00;99.90;;;;;;2082984;28;20194;-64
2021/04/05 00:45:21;;;;;;;9.27;3.73;;;0.00;99.90;;;;;;2091693;28;20267;-64
2021/04/05 00:46:25;;;;;;;7.97;3.30;;;-0.10;99.90;;;;;;2091359;28;20190;-65
2021/04/05 00:47:25;;;;;;;7.60;4.10;;;0.00;99.90;;;;;;2082809;28;20192;-64
2021/04/05 00:48:27;;;;;;;7.70;3.97;;;-0.10;99.90;;;;;;2082664;28;20186;-64
2021/04/05 00:49:27;;;;;;;8.23;3.70;;;-0.10;99.90;;;;;;2089153;28;20540;-63
2021/04/05 00:50:34;;;;;;;7.27;3.50;;;-0.10;99.90;;;;;;2090204;28;20247;-64
2021/04/05 00:51:34;;;;;;;7.82;3.50;;;-0.10;99.90;;;;;;2089683;28;20173;-65
2021/04/05 00:52:37;;;;;;;8.40;4.50;;;-0.10;99.90;;;;;;2081259;28;20643;-64
2021/04/05 00:53:40;;;;;;;6.40;3.85;;;-0.10;99.90;;;;;;2073742;28;20182;-63
2021/04/05 00:54:41;;;;;;;7.78;3.83;;;-0.10;99.90;;;;;;2081889;28;20173;-64
2021/04/05 00:55:45;;;;;;;8.13;3.70;;;-0.20;99.90;;;;;;2081450;28;20186;-64
2021/04/05 00:56:46;;;;;;;9.27;4.20;;;-0.20;99.90;;;;;;2081626;28;20736;-63
2021/04/05 00:57:47;;;;;;;7.85;3.75;;;-0.20;99.90;;;;;;2090285;28;20186;-63
2021/04/05 00:58:49;;;;;;;6.70;3.53;;;-0.20;99.90;;;;;;2081309;28;20192;-63
2021/04/05 00:59:50;;;;;;;6.75;3.70;;;-0.20;99.90;;;;;;2081663;28;20199;-64
2021/04/05 01:01:02;;;;;;;9.03;3.63;;;-0.20;99.90;;;;;;2089666;28;20188;-64
2021/04/05 01:02:03;;;;;;;7.30;3.55;;;-0.20;99.90;;;;;;2090246;28;20169;-66
2021/04/05 01:03:06;;;;;;;9.73;4.70;;;-0.20;99.90;;;;;;2090100;28;20206;-65
2021/04/05 01:04:06;;;;;;;7.95;3.67;;;-0.20;99.90;;;;;;2090233;28;20234;-65
2021/04/05 01:05:10;;;;;;;7.50;3.50;;;-0.20;99.90;;;;;;2090213;28;20929;-64
2021/04/05 01:06:40;;;;;;;5.88;3.60;;;-0.30;99.90;;;;;;2090239;28;20189;-64
2021/04/05 01:07:41;;;;;;;6.40;3.45;;;-0.20;99.90;;;;;;2072960;28;20189;-65
2021/04/05 01:08:42;;;;;;;8.53;3.50;;;-0.30;99.90;;;;;;2090238;28;20181;-65
2021/04/05 01:09:42;;;;;;;6.83;3.60;;;-0.30;99.90;;;;;;2090094;28;20182;-65
2021/04/05 01:10:45;;;;;;;7.37;3.90;;;-0.30;99.90;;;;;;2090064;28;20189;-63
2021/04/05 01:11:45;;;;;;;7.97;3.60;;;-0.30;99.90;;;;;;2089689;28;20667;-65
2021/04/05 01:12:46;;;;;;;7.20;3.43;;;-0.30;99.90;;;;;;2090011;28;20213;-66
2021/04/05 01:13:47;;;;;;;7.50;4.03;;;-0.30;99.90;;;;;;2089965;28;20632;-66
2021/04/05 01:14:48;;;;;;;7.07;3.60;;;-0.30;99.90;;;;;;2090052;28;20556;-66
2021/04/05 01:15:49;;;;;;;10.53;3.70;;;-0.30;99.90;;;;;;2090101;28;20182;-66
2021/04/05 01:16:50;;;;;;;7.80;3.67;;;-0.30;99.90;;;;;;2090069;28;20187;-65
2021/04/05 01:17:51;;;;;;;6.07;3.63;;;-0.30;99.90;;;;;;2090062;28;20236;-66
2021/04/05 01:18:53;;;;;;;8.38;3.83;;;-0.40;99.90;;;;;;2081091;28;20185;-63
2021/04/05 01:19:54;;;;;;;7.72;4.05;;;-0.30;99.90;;;;;;2073106;28;20241;-66
2021/04/05 01:20:55;;;;;;;5.40;3.43;;;-0.30;99.90;;;;;;2080762;28;20216;-66
2021/04/05 01:21:56;;;;;;;5.18;3.38;;;-0.30;99.90;;;;;;2090069;28;20274;-65
2021/04/05 01:22:58;;;;;;;9.77;4.30;;;-0.30;99.90;;;;;;2090151;28;20206;-66
2021/04/05 01:23:59;;;;;;;7.78;3.85;;;-0.40;99.90;;;;;;2089936;28;20193;-66
2021/04/05 01:25:00;;;;;;;6.60;3.50;;;-0.40;99.90;;;;;;2090128;28;20183;-65
2021/04/05 01:26:01;;;;;;;8.80;3.80;;;-0.40;99.90;;;;;;2090000;28;20186;-66
2021/04/05 01:27:02;;;;;;;8.87;3.77;;;-0.40;99.90;;;;;;2090064;28;20236;-66
2021/04/05 01:28:04;;;;;;;9.65;4.00;;;-0.40;99.90;;;;;;2089966;28;20185;-66
2021/04/05 01:29:05;;;;;;;5.72;3.83;;;-0.40;99.90;;;;;;2086874;28;20682;-66
2021/04/05 01:30:13;;;;;;;7.10;3.60;;;-0.40;99.90;;;;;;2089918;28;20193;-66
2021/04/05 01:31:14;;;;;;;8.77;3.83;;;-0.50;99.90;;;;;;2089531;28;20191;-66
2021/04/05 01:32:14;;;;;;;7.13;3.33;;;-0.50;99.90;;;;;;2081200;28;20194;-66
2021/04/05 01:33:30;;;;;;;7.17;3.80;;;-0.40;99.90;;;;;;2081113;28;20733;-67
2021/04/05 01:34:31;;;;;;;6.38;3.50;;;-0.40;99.90;;;;;;2089961;28;20168;-66
2021/04/05 01:35:46;;;;;;;5.67;3.40;;;-0.50;99.90;;;;;;2090016;28;20713;-66
2021/04/05 01:36:47;;;;;;;8.68;4.13;;;-0.50;99.90;;;;;;2089944;28;20377;-66
2021/04/05 01:37:48;;;;;;;6.60;3.43;;;-0.50;99.90;;;;;;2090071;28;20223;-64
2021/04/05 01:38:52;;;;;;;6.77;3.77;;;-0.50;99.90;;;;;;2089858;28;20276;-65
2021/04/05 01:39:53;;;;;;;6.13;3.28;;;-0.50;99.90;;;;;;2090087;28;20176;-65
2021/04/05 01:41:21;;;;;;;9.17;3.83;;;-0.50;99.90;;;;;;2089290;28;20187;-65
2021/04/05 01:42:22;;;;;;;8.20;3.53;;;-0.50;99.90;;;;;;2059650;28;20192;-66
2021/04/05 01:43:23;;;;;;;8.33;4.00;;;-0.50;99.90;;;;;;2081191;28;20264;-65
2021/04/05 01:44:23;;;;;;;8.85;4.25;;;-0.50;99.90;;;;;;2080988;28;20640;-66
2021/04/05 01:45:24;;;;;;;7.33;4.07;;;-0.50;99.90;;;;;;2090007;28;20182;-65
2021/04/05 01:46:28;;;;;;;7.47;4.20;;;-0.60;99.90;;;;;;2089572;28;20178;-66
2021/04/05 01:47:29;;;;;;;8.10;4.28;;;-0.60;99.90;;;;;;2081001;28;20178;-66
2021/04/05 01:48:31;;;;;;;8.37;3.77;;;-0.60;99.90;;;;;;2080842;28;20192;-66
2021/04/05 01:49:32;;;;;;;7.20;3.92;;;-0.60;99.90;;;;;;2089976;28;20176;-66
2021/04/05 01:50:33;;;;;;;6.70;4.47;;;-0.60;99.90;;;;;;2089702;28;20189;-65
2021/04/05 01:51:34;;;;;;;7.95;4.15;;;-0.60;99.90;;;;;;2089031;28;20605;-66
2021/04/05 01:52:40;;;;;;;7.43;3.97;;;-0.60;99.90;;;;;;2080800;28;20189;-65
2021/04/05 01:53:43;;;;;;;6.40;3.70;;;-0.60;99.90;;;;;;2081789;28;20182;-65
2021/04/05 01:54:44;;;;;;;6.97;4.10;;;-0.60;99.90;;;;;;2080869;28;20248;-66
2021/04/05 01:55:46;;;;;;;6.30;3.90;;;-0.60;99.90;;;;;;2081050;28;20265;-66
2021/04/05 01:56:47;;;;;;;8.02;4.38;;;-0.60;99.90;;;;;;2080796;28;20209;-65
2021/04/05 01:57:49;;;;;;;7.60;4.13;;;-0.60;99.90;;;;;;2081048;28;20193;-66
2021/04/05 01:58:53;;;;;;;9.63;4.18;;;-0.60;99.90;;;;;;2089692;28;20509;-65
2021/04/05 01:59:54;;;;;;;10.57;4.28;;;-0.60;99.90;;;;;;2089833;28;20205;-66
2021/04/05 02:00:56;;;;;;;8.13;4.00;;;-0.60;99.90;;;;;;2088756;28;20711;-66
2021/04/05 02:01:56;;;;;;;8.68;4.05;;;-0.60;99.90;;;;;;2089670;28;20180;-65
2021/04/05 02:02:57;;;;;;;6.00;3.73;;;-0.70;99.90;;;;;;2080342;28;20240;-65
2021/04/05 02:04:03;;;;;;;8.75;4.35;;;-0.70;99.90;;;;;;2080898;28;20268;-65
2021/04/05 02:05:09;;;;;;;7.07;4.10;;;-0.60;99.90;;;;;;2089383;28;20177;-66
2021/04/05 02:06:16;;;;;;;6.47;3.83;;;-0.70;99.90;;;;;;2089726;28;20185;-66
2021/04/05 02:07:17;;;;;;;10.07;4.25;;;-0.70;99.90;;;;;;2080777;28;20181;-65
2021/04/05 02:08:22;;;;;;;8.13;4.05;;;-0.70;99.90;;;;;;2072648;28;20609;-66
2021/04/05 02:09:23;;;;;;;9.50;4.28;;;-0.70;99.90;;;;;;2081636;28;20261;-66
2021/04/05 02:10:25;;;;;;;7.33;4.07;;;-0.70;99.90;;;;;;2089577;28;20575;-66
2021/04/05 02:11:31;;;;;;;9.18;3.72;;;-0.80;99.90;;;;;;2089025;28;20683;-65
2021/04/05 02:12:32;;;;;;;8.27;4.43;;;-0.70;99.90;;;;;;2089577;28;20192;-66
2021/04/05 02:13:33;;;;;;;8.20;4.17;;;-0.80;99.90;;;;;;2089426;28;20196;-66
2021/04/05 02:14:33;;;;;;;9.53;4.53;;;-0.70;99.90;;;;;;2089685;28;20184;-65
2021/04/05 02:15:35;;;;;;;7.23;3.80;;;-0.70;99.90;;;;;;2080878;28;20196;-65
2021/04/05 02:16:36;;;;;;;9.23;4.40;;;-0.70;99.90;;;;;;2072569;28;20194;-66
2021/04/05 02:17:38;;;;;;;9.18;3.85;;;-0.70;99.90;;;;;;2080864;28;20674;-66
2021/04/05 02:18:38;;;;;;;8.20;3.42;;;-0.70;99.90;;;;;;2080660;28;20178;-66
2021/04/05 02:19:39;;;;;;;8.07;4.10;;;-0.80;99.90;;;;;;2080806;28;20261;-66
2021/04/05 02:20:42;;;;;;;8.07;3.80;;;-0.80;99.90;;;;;;2080634;28;20174;-66
2021/04/05 02:21:47;;;;;;;10.88;3.95;;;-0.80;99.90;;;;;;2072390;28;20178;-65
2021/04/05 02:22:51;;;;;;;8.05;4.20;;;-0.80;99.90;;;;;;2081084;28;20741;-65
2021/04/05 02:23:55;;;;;;;7.72;4.38;;;-0.80;99.90;;;;;;2080539;28;20181;-66
2021/04/05 02:24:56;;;;;;;7.82;4.53;;;-0.80;99.90;;;;;;2072924;28;20189;-66
2021/04/05 02:26:10;;;;;;;8.70;4.38;;;-0.80;99.90;;;;;;2080825;28;20181;-66
2021/04/05 02:27:11;;;;;;;7.82;3.88;;;-0.80;99.90;;;;;;2080779;28;20256;-66
2021/04/05 02:28:11;;;;;;;7.80;3.90;;;-0.90;99.90;;;;;;2073512;28;20557;-66
2021/04/05 02:29:18;;;;;;;11.80;4.33;;;-0.90;99.90;;;;;;2072506;28;20262;-66
2021/04/05 02:30:26;;;;;;;9.00;3.90;;;-0.90;99.90;;;;;;2081325;28;20261;-66
2021/04/05 02:31:32;;;;;;;5.70;3.35;;;-0.90;99.90;;;;;;2088449;28;20203;-66
2021/04/05 02:32:33;;;;;;;5.57;3.30;;;-0.90;99.90;;;;;;2089280;28;20173;-66
2021/04/05 02:33:42;;;;;;;5.53;3.50;;;-0.90;99.90;;;;;;2080553;28;20209;-66
2021/04/05 02:34:49;;;;;;;5.78;3.60;;;-0.90;99.90;;;;;;2081683;28;20616;-66
2021/04/05 02:35:50;;;;;;;7.75;3.58;;;-1.00;99.90;;;;;;2076996;28;20741;-66
2021/04/05 02:36:51;;;;;;;6.75;3.60;;;-1.00;99.90;;;;;;2072413;28;20182;-66
2021/04/05 02:37:54;;;;;;;8.03;3.57;;;-1.00;99.90;;;;;;2080478;28;20200;-66
2021/04/05 02:39:01;;;;;;;8.18;3.67;;;-1.00;99.90;;;;;;2089410;28;20183;-65
2021/04/05 02:40:03;;;;;;;8.50;3.63;;;-1.00;99.90;;;;;;2089415;28;20184;-66
2021/04/05 02:41:06;;;;;;;9.18;3.40;;;-1.00;99.90;;;;;;2088512;28;20180;-65
2021/04/05 02:42:09;;;;;;;8.77;3.95;;;-1.00;99.90;;;;;;2089453;28;20184;-66
2021/04/05 02:43:12;;;;;;;7.28;3.95;;;-1.10;99.90;;;;;;2089327;28;20589;-66
2021/04/05 02:44:13;;;;;;;7.43;3.63;;;-1.00;99.90;;;;;;2089365;28;20215;-66
2021/04/05 02:45:20;;;;;;;9.82;3.55;;;-1.10;99.90;;;;;;2089411;28;20215;-65
2021/04/05 02:46:28;;;;;;;9.05;4.20;;;-1.10;99.90;;;;;;2089263;28;20635;-65
2021/04/05 02:47:30;;;;;;;8.23;3.78;;;-1.10;99.90;;;;;;2089436;28;20161;-65
2021/04/05 02:48:35;;;;;;;8.27;3.80;;;-1.10;99.90;;;;;;2088769;28;20276;-65
2021/04/05 02:49:36;;;;;;;7.65;3.72;;;-1.20;99.90;;;;;;2088798;28;20655;-66
2021/04/05 02:50:37;;;;;;;6.15;4.03;;;-1.20;99.90;;;;;;2088747;28;20272;-65
2021/04/05 02:51:47;;;;;;;8.38;4.00;;;-1.20;99.90;;;;;;2079821;28;20181;-66
2021/04/05 02:52:49;;;;;;;5.45;3.50;;;-1.20;99.90;;;;;;2081770;28;20185;-66
2021/04/05 02:54:01;;;;;;;8.50;3.53;;;-1.20;99.90;;;;;;2089317;28;20176;-66
2021/04/05 02:55:09;;;;;;;4.63;3.20;;;-1.20;99.90;;;;;;2089310;28;20724;-66
2021/04/05 02:56:11;;;;;;;5.90;3.03;;;-1.20;99.90;;;;;;2089488;28;20169;-66
2021/04/05 02:57:12;;;;;;;9.77;4.05;;;-1.20;99.90;;;;;;2088621;28;20247;-66
2021/04/05 02:58:14;;;;;;;7.55;3.60;;;-1.20;99.90;;;;;;2088673;28;20195;-65
2021/04/05 02:59:20;;;;;;;6.57;3.75;;;-1.20;99.90;;;;;;2089238;28;20182;-66
2021/04/05 03:00:22;;;;;;;6.70;3.92;;;-1.20;99.90;;;;;;2088653;28;20177;-66
2021/04/05 03:01:26;;;;;;;6.45;3.70;;;-1.20;99.90;;;;;;2079962;28;20227;-66
2021/04/05 03:02:27;;;;;;;7.07;3.60;;;-1.20;99.90;;;;;;2072567;28;20178;-65
2021/04/05 03:03:28;;;;;;;5.67;3.40;;;-1.20;99.90;;;;;;2072313;28;20279;-66
2021/04/05 03:04:30;;;;;;;5.17;3.50;;;-1.30;99.90;;;;;;2080438;28;20457;-66
2021/04/05 03:05:31;;;;;;;6.93;4.07;;;-1.30;99.90;;;;;;2088856;28;20244;-66
2021/04/05 03:06:32;;;;;;;9.98;4.25;;;-1.30;99.90;;;;;;2089149;28;20183;-66
2021/04/05 03:07:36;;;;;;;12.20;4.47;;;-1.30;99.90;;;;;;2089097;28;20670;-66
2021/04/05 03:08:37;;;;;;;7.85;4.22;;;-1.30;99.90;;;;;;2080242;28;20180;-64
2021/04/05 03:09:39;;;;;;;5.13;3.97;;;-1.30;99.90;;;;;;2080577;28;20181;-66
2021/04/05 03:10:39;;;;;;;6.50;3.97;;;-1.20;99.90;;;;;;2089194;28;20786;-66
2021/04/05 03:11:44;;;;;;;8.27;3.60;;;-1.20;99.90;;;;;;2088816;28;20183;-66
2021/04/05 03:12:50;;;;;;;8.57;4.13;;;-1.20;99.90;;;;;;2087735;28;20236;-66
2021/04/05 03:13:52;;;;;;;6.93;3.78;;;-1.20;99.90;;;;;;2080633;28;20173;-65
2021/04/05 03:14:53;;;;;;;7.18;4.18;;;-1.20;99.90;;;;;;2072097;28;20193;-66
2021/04/05 03:15:54;;;;;;;9.80;4.05;;;-1.20;99.90;;;;;;2072288;28;20269;-66
2021/04/05 03:16:56;;;;;;;7.77;4.13;;;-1.20;99.90;;;;;;2080179;28;20687;-65
2021/04/05 03:18:01;;;;;;;7.22;3.67;;;-1.20;99.90;;;;;;2088535;28;20260;-66
2021/04/05 03:19:03;;;;;;;7.75;3.55;;;-1.20;99.90;;;;;;2088531;28;20191;-66
2021/04/05 03:20:27;;;;;;;6.20;3.78;;;-1.20;99.90;;;;;;2089262;28;20176;-65
2021/04/05 03:21:29;;;;;;;7.53;3.53;;;-1.20;99.90;;;;;;2088457;28;20177;-66
2021/04/05 03:22:30;;;;;;;7.28;4.00;;;-1.20;99.90;;;;;;2088652;28;20180;-66
2021/04/05 03:23:31;;;;;;;8.77;4.20;;;-1.20;99.90;;;;;;2080274;28;20281;-66
2021/04/05 03:24:35;;;;;;;6.67;3.80;;;-1.20;99.90;;;;;;2072382;28;20177;-65
2021/04/05 03:25:36;;;;;;;7.88;3.90;;;-1.20;99.90;;;;;;2080331;28;20707;-65
2021/04/05 03:26:37;;;;;;;7.17;3.93;;;-1.10;99.90;;;;;;2080550;28;20179;-65
2021/04/05 03:27:37;;;;;;;6.10;3.93;;;-1.10;99.90;;;;;;2089386;28;20187;-65
2021/04/05 03:28:39;;;;;;;10.60;3.93;;;-1.10;99.90;;;;;;2089287;28;20640;-66
2021/04/05 03:29:43;;;;;;;7.60;4.07;;;-1.10;99.90;;;;;;2089201;28;20182;-66
2021/04/05 03:31:16;;;;;;;7.15;3.70;;;-1.10;99.90;;;;;;2088558;28;20188;-66
2021/04/05 03:32:19;;;;;;;7.25;3.75;;;-1.00;99.90;;;;;;2080661;28;20680;-66
2021/04/05 03:34:05;;;;;;;5.75;3.10;;;-1.00;99.90;;;;;;2069055;28;20218;-65
2021/04/05 03:35:12;;;;;;;5.07;3.30;;;-0.90;99.90;;;;;;2059800;28;20275;-64
2021/04/05 03:36:19;;;;;;;8.10;3.15;;;-0.80;99.90;;;;;;2080624;28;20710;-66
2021/04/05 03:37:22;;;;;;;7.95;3.30;;;-0.70;99.90;;;;;;2073289;28;20183;-66
2021/04/05 03:38:23;;;;;;;5.35;3.22;;;-0.60;99.90;;;;;;2080755;28;20180;-66
2021/04/05 03:39:25;;;;;;;8.13;3.53;;;-0.60;99.90;;;;;;2088479;28;20669;-65
2021/04/05 03:40:27;;;;;;;7.45;3.60;;;-0.50;99.90;;;;;;2080310;28;20203;-66
2021/04/05 03:41:33;;;;;;;6.78;3.40;;;-0.50;99.90;;;;;;2079787;28;20187;-66
2021/04/05 03:42:41;;;;;;;5.75;2.97;;;-0.50;99.90;;;;;;2089046;28;20512;-66
2021/04/05 03:43:56;;;;;;;7.85;3.67;;;-0.50;99.90;;;;;;2080102;28;20185;-66
2021/04/05 03:45:31;;;;;;;4.53;3.20;;;-0.40;99.90;;;;;;2082106;28;20176;-66
2021/04/05 03:46:38;;;;;;;7.05;3.08;;;-0.40;99.90;;;;;;2080130;28;20208;-66
2021/04/05 03:48:07;;;;;;;4.95;3.10;;;-0.30;99.90;;;;;;2072854;28;20235;-65
2021/04/05 03:49:33;;;;;;;5.18;3.42;;;-0.30;99.90;;;;;;2084564;28;20825;-65
2021/04/05 03:51:18;;;;;;;4.57;2.35;;;-0.30;99.90;;;;;;2088939;28;20550;-66
2021/04/05 03:52:27;;;;;;;6.18;3.85;;;-0.20;99.90;;;;;;2089008;28;20587;-66
2021/04/05 03:53:56;;;;;;;6.35;3.15;;;0.00;99.90;;;;;;2088267;28;20634;-66
2021/04/05 03:55:05;;;;;;;4.10;2.90;;;0.10;99.90;;;;;;2080109;28;20288;-66
2021/04/05 03:56:15;;;;;;;5.00;2.63;;;0.10;99.90;;;;;;2073068;28;20171;-68
2021/04/05 03:57:22;;;;;;;7.22;3.25;;;0.20;99.90;;;;;;2081424;28;20192;-66
2021/04/05 03:58:27;;;;;;;4.38;2.90;;;0.30;99.90;;;;;;2080165;28;20163;-65
2021/04/05 03:59:45;;;;;;;6.63;3.20;;;0.40;99.90;;;;;;2080745;28;20670;-65
2021/04/05 04:00:46;;;;;;;3.95;2.75;;;0.50;99.90;;;;;;2079886;28;20193;-66
2021/04/05 04:01:53;;;;;;;6.55;2.90;;;0.60;99.90;;;;;;2071529;28;20191;-66
2021/04/05 04:02:54;;;;;;;4.93;2.80;;;0.70;99.90;;;;;;2079928;28;20639;-66
2021/04/05 04:04:09;;;;;;;5.45;2.88;;;0.70;99.90;;;;;;2080620;28;20183;-66
2021/04/05 04:05:15;;;;;;;6.30;3.05;;;0.90;99.90;;;;;;2088278;28;20165;-66
2021/04/05 04:06:19;;;;;;;6.65;3.22;;;1.00;99.90;;;;;;2080168;28;20693;-66
2021/04/05 04:07:36;;;;;;;5.97;3.00;;;1.00;99.90;;;;;;2072664;28;20193;-65
2021/04/05 04:08:44;;;;;;;5.97;2.92;;;1.10;99.90;;;;;;2082768;28;20167;-66
2021/04/05 04:09:46;;;;;;;4.15;2.50;;;1.10;99.90;;;;;;2089019;28;20163;-63
2021/04/05 04:10:54;;;;;;;4.35;2.60;;;1.10;99.90;;;;;;2088189;28;20194;-64
2021/04/05 04:11:57;;;;;;;3.63;2.47;;;1.20;99.90;;;;;;2088449;28;20190;-64
2021/04/05 04:13:00;;;;;;;5.38;2.63;;;1.20;99.90;;;;;;2088006;28;20215;-64
2021/04/05 04:14:05;;;;;;;6.95;2.80;;;1.30;99.90;;;;;;2071886;28;20183;-64
2021/04/05 04:15:08;;;;;;;6.43;2.80;;;1.40;99.90;;;;;;2072966;28;20294;-64
2021/04/05 04:16:10;;;;;;;6.85;2.83;;;1.40;99.90;;;;;;2089082;28;20206;-64
2021/04/05 04:17:11;;;;;;;4.65;2.50;;;1.50;99.90;;;;;;2088717;28;20550;-65
2021/04/05 04:18:14;;;;;;;5.85;2.83;;;1.50;99.90;;;;;;2088218;28;20659;-64
2021/04/05 04:19:17;;;;;;;4.65;2.65;;;1.50;99.90;;;;;;2088108;28;20290;-64
2021/04/05 04:20:18;;;;;;;7.65;3.20;;;1.60;99.90;;;;;;2088470;28;20191;-65
2021/04/05 04:21:19;;;;;;;6.07;2.80;;;1.60;99.90;;;;;;2087604;28;20218;-63
2021/04/05 04:22:21;;;;;;;5.10;2.40;;;1.60;99.90;;;;;;2088281;28;20208;-64
2021/04/05 04:23:23;;;;;;;6.28;2.70;;;1.60;99.90;;;;;;2079687;28;20710;-65
2021/04/05 04:24:26;;;;;;;4.10;2.90;;;1.70;99.90;;;;;;2073591;28;20872;-65
2021/04/05 04:25:27;;;;;;;5.05;2.75;;;1.60;99.90;;;;;;2073617;28;20192;-65
2021/04/05 04:26:35;;;;;;;5.33;2.90;;;1.60;99.90;;;;;;2081661;28;20632;-64
2021/04/05 04:27:37;;;;;;;8.57;3.20;;;1.50;99.90;;;;;;2090480;28;20163;-65
2021/04/05 04:28:43;;;;;;;6.40;2.92;;;1.50;99.90;;;;;;2090347;28;20192;-66
2021/04/05 04:29:53;;;;;;;5.03;2.70;;;1.50;99.90;;;;;;2090326;28;20180;-65
2021/04/05 04:30:59;;;;;;;5.00;3.00;;;1.60;99.90;;;;;;2089961;28;20180;-65
2021/04/05 04:32:00;;;;;;;5.40;2.75;;;1.60;99.90;;;;;;2090472;28;20179;-64
2021/04/05 04:33:08;;;;;;;5.18;3.22;;;1.60;99.90;;;;;;2089593;28;20223;-65
2021/04/05 04:35:12;;;;;;;5.55;2.78;;;1.70;99.90;;;;;;2123892;22;20240;-62
2021/04/05 04:36:13;;;;;;;4.97;2.70;;;1.70;99.90;;;;;;2090338;28;20257;-62
2021/04/05 04:37:15;;;;;;;4.83;2.60;;;1.80;99.90;;;;;;2090057;28;20588;-63
2021/04/05 04:38:15;;;;;;;4.90;3.05;;;1.80;99.90;;;;;;2081338;28;20498;-63
2021/04/05 04:39:19;;;;;;;6.67;3.10;;;1.90;99.90;;;;;;2081148;28;20387;-63
2021/04/05 04:40:28;;;;;;;6.30;3.03;;;2.00;99.90;;;;;;2081739;28;20215;-63
2021/04/05 04:41:30;;;;;;;5.65;2.63;;;2.10;99.90;;;;;;2080561;28;20169;-63
2021/04/05 04:42:31;;;;;;;3.58;2.78;;;2.20;99.90;;;;;;2081438;28;20188;-63
2021/04/05 04:43:31;;;;;;;4.13;2.97;;;2.20;99.90;;;;;;2073067;28;20182;-64
2021/04/05 04:44:32;;;;;;;6.93;3.00;;;2.30;99.90;;;;;;2081218;28;20196;-63
2021/04/05 04:45:34;;;;;;;4.27;2.67;;;2.30;99.90;;;;;;2090057;28;20179;-64
2021/04/05 04:46:35;;;;;;;4.80;2.70;;;2.40;99.90;;;;;;2081370;28;20608;-64
2021/04/05 04:47:36;;;;;;;5.10;2.63;;;2.50;99.90;;;;;;2081133;28;20271;-63
2021/04/05 04:48:36;;;;;;;5.80;2.90;;;2.60;99.90;;;;;;2081329;28;20700;-64
2021/04/05 04:49:37;;;;;;;5.13;3.07;;;2.80;99.90;;;;;;2072994;28;20223;-64
2021/04/05 04:50:39;;;;;;;6.10;2.63;;;2.90;99.90;;;;;;2081315;28;20209;-63
2021/04/05 04:51:41;;;;;;;4.55;2.90;;;2.90;99.70;;;;;;2080595;28;20595;-64
2021/04/05 04:52:42;;;;;;;6.15;2.78;;;3.00;99.90;;;;;;2073191;28;20775;-63
2021/04/05 04:53:43;;;;;;;5.37;2.60;;;3.00;99.90;;;;;;2081168;28;20187;-64
2021/04/05 04:54:43;;;;;;;7.23;3.63;;;3.10;99.40;;;;;;2090209;28;20193;-64
2021/04/05 04:55:44;;;;;;;4.47;2.83;;;3.10;99.90;;;;;;2089948;28;20560;-64
2021/04/05 04:56:45;;;;;;;5.43;2.93;;;3.20;99.50;;;;;;2081434;28;20747;-64
2021/04/05 04:57:46;;;;;;;5.47;3.03;;;3.20;98.80;;;;;;2073112;28;20342;-63
2021/04/05 04:58:47;;;;;;;4.83;2.90;;;3.30;99.80;;;;;;2081290;28;20648;-64
2021/04/05 04:59:48;;;;;;;6.60;3.53;;;3.30;98.80;;;;;;2081255;28;20181;-65
2021/04/05 05:00:48;;;;;;;5.43;3.00;;;3.40;97.80;;;;;;2089854;28;20266;-64
2021/04/05 05:01:49;;;;;;;5.10;3.43;;;3.50;97.10;;;;;;2080901;28;20173;-64
2021/04/05 05:02:51;;;;;;;4.87;2.93;;;3.70;96.60;;;;;;2081406;28;20567;-63
2021/04/05 05:03:56;;;;;;;5.78;3.30;;;3.70;96.90;;;;;;2081137;28;20257;-64
2021/04/05 05:04:58;;;;;;;5.93;2.95;;;3.70;97.40;;;;;;2073568;28;20202;-64
2021/04/05 05:06:01;;;;;;;6.00;3.20;;;3.70;98.50;;;;;;2073024;28;20638;-65
2021/04/05 05:07:02;;;;;;;5.80;2.78;;;3.60;98.60;;;;;;2081571;28;20189;-64
2021/04/05 05:08:05;;;;;;;3.95;2.85;;;3.70;97.20;;;;;;2081170;28;20165;-64
2021/04/05 05:09:06;;;;;;;6.68;3.20;;;3.70;97.80;;;;;;2073348;28;20213;-65
2021/04/05 05:10:10;;;;;;;5.78;2.97;;;3.70;98.00;;;;;;2081102;28;20181;-64
2021/04/05 05:11:11;;;;;;;6.70;3.25;;;3.60;98.20;;;;;;2080503;28;20260;-64
2021/04/05 05:12:13;;;;;;;7.57;3.08;;;3.60;98.60;;;;;;2081096;28;20177;-63
2021/04/05 05:13:14;;;;;;;4.35;3.10;;;3.60;98.30;;;;;;2080863;28;20217;-64
2021/04/05 05:14:16;;;;;;;6.72;3.13;;;3.50;98.90;;;;;;2081011;28;20179;-64
2021/04/05 05:15:18;;;;;;;6.95;3.00;;;3.50;98.30;;;;;;2081152;28;20185;-64
2021/04/05 05:16:19;;;;;;;4.82;3.00;;;3.50;98.10;;;;;;2072944;28;20186;-64
2021/04/05 05:17:20;;;;;;;5.05;3.08;;;3.50;98.00;;;;;;2072722;28;20178;-64
2021/04/05 05:18:21;;;;;;;5.40;3.00;;;3.60;98.00;;;;;;2072967;28;20178;-63
2021/04/05 05:19:22;;;;;;;7.55;3.08;;;3.60;98.50;;;;;;2081117;28;20619;-62
2021/04/05 05:20:23;;;;;;;4.93;2.83;;;3.60;98.50;;;;;;2089930;28;20238;-63
2021/04/05 05:21:50;;;;;;;6.43;2.87;;;3.60;98.40;;;;;;2089224;28;20538;-64
2021/04/05 05:22:59;;;;;;;4.65;3.15;;;3.60;98.00;;;;;;2081011;28;20212;-64
2021/04/05 05:24:06;;;;;;;5.55;3.05;;;3.70;98.60;;;;;;2082285;28;20170;-64
2021/04/05 05:25:08;;;;;;;6.43;2.92;;;3.70;98.00;;;;;;2080848;28;20209;-63
2021/04/05 05:26:13;;;;;;;7.53;3.08;;;3.70;98.50;;;;;;2081267;28;20279;-63
2021/04/05 05:27:16;;;;;;;4.47;2.67;;;3.70;97.70;;;;;;2081009;28;20622;-64
2021/04/05 05:28:20;;;;;;;5.55;3.28;;;3.90;96.80;;;;;;2073078;28;20193;-63
2021/04/05 05:29:22;;;;;;;5.25;3.28;;;3.90;96.90;;;;;;2081431;28;20626;-63
2021/04/05 05:30:24;;;;;;;7.63;3.33;;;4.00;96.80;;;;;;2081110;28;20676;-63
2021/04/05 05:31:25;;;;;;;5.63;2.80;;;4.00;97.40;;;;;;2080286;28;20212;-63
2021/04/05 05:32:25;;;;;;;6.07;3.17;;;4.10;96.70;;;;;;2084417;28;20193;-64
2021/04/05 05:33:26;;;;;;;5.50;2.67;;;4.20;97.90;;;;;;2072560;28;20213;-63
2021/04/05 05:34:27;;;;;;;5.70;3.37;;;4.20;96.90;;;;;;2072685;28;20193;-63
2021/04/05 05:35:28;;;;;;;4.17;2.90;;;4.30;97.80;;;;;;2071926;28;20244;-65